createdAt,value
2019-05-30T00:00:36.164Z,96104.61
2019-05-30T00:03:02.393Z,96098.48
2019-05-30T00:05:28.582Z,96091.33
2019-05-30T00:07:54.582Z,96095.49
2019-05-30T00:10:20.694Z,96091.25
2019-05-30T00:12:46.874Z,96096.84
2019-05-30T00:15:13.034Z,96085.70
2019-05-30T00:17:39.055Z,96092.79
2019-05-30T00:20:06.141Z,96089.34
2019-05-30T00:22:32.423Z,96088.92
2019-05-30T00:24:58.440Z,96089.31
2019-05-30T00:27:24.483Z,96083.58
2019-05-30T00:29:50.591Z,96084.09
2019-05-30T00:32:16.590Z,96083.66
2019-05-30T00:34:42.600Z,96074.33
2019-05-30T00:37:08.705Z,96076.20
2019-05-30T00:39:34.744Z,96080.21
2019-05-30T00:42:01.971Z,96078.78
2019-05-30T00:44:28.193Z,96083.66
2019-05-30T00:46:54.196Z,96087.74
2019-05-30T00:49:20.217Z,96079.39
2019-05-30T00:51:46.321Z,96080.42
2019-05-30T00:54:12.369Z,96079.28
2019-05-30T00:56:38.495Z,96076.30
2019-05-30T00:59:04.885Z,96077.81
2019-05-30T01:01:31.107Z,96085.98
2019-05-30T01:03:57.105Z,96086.56
2019-05-30T01:06:23.221Z,96082.22
2019-05-30T01:08:49.370Z,96075.30
2019-05-30T01:11:15.679Z,96072.75
2019-05-30T01:13:41.692Z,96072.39
2019-05-30T01:16:07.801Z,96076.08
2019-05-30T01:18:33.937Z,96073.95
2019-05-30T01:21:01.214Z,96078.04
2019-05-30T01:23:27.484Z,96081.52
2019-05-30T01:25:53.490Z,96077.11
2019-05-30T01:28:19.431Z,96069.98
2019-05-30T01:30:58.843Z,96070.69
2019-05-30T01:33:13.567Z,96067.97
2019-05-30T01:35:39.669Z,96067.00
2019-05-30T01:38:06.091Z,96065.81
2019-05-30T01:40:32.229Z,96069.87
2019-05-30T01:42:58.206Z,96072.12
2019-05-30T01:45:24.108Z,96076.39
2019-05-30T01:47:50.020Z,96073.42
2019-05-30T01:50:16.243Z,96084.22
2019-05-30T01:52:42.244Z,96081.14
2019-05-30T01:55:09.582Z,96082.97
2019-05-30T01:57:36.179Z,96086.16
2019-05-30T02:00:19.893Z,96077.98
2019-05-30T02:02:36.169Z,96075.73
2019-05-30T02:05:03.462Z,96083.05
2019-05-30T02:07:30.098Z,96072.83
2019-05-30T02:09:56.094Z,96081.08
2019-05-30T02:12:22.134Z,96080.47
2019-05-30T02:14:48.246Z,96077.63
2019-05-30T02:17:14.248Z,96083.29
2019-05-30T02:19:40.261Z,96079.09
2019-05-30T02:22:06.372Z,96090.61
2019-05-30T02:24:32.513Z,96087.98
2019-05-30T02:26:59.973Z,96089.55
2019-05-30T02:29:26.105Z,96086.19
2019-05-30T02:31:52.309Z,96091.67
2019-05-30T02:34:18.352Z,96093.00
2019-05-30T02:36:44.475Z,96098.70
2019-05-30T02:39:11.933Z,96095.12
2019-05-30T02:41:38.403Z,96099.42
2019-05-30T02:44:05.539Z,96098.89
2019-05-30T02:46:32.257Z,96096.23
2019-05-30T02:48:59.735Z,96095.34
2019-05-30T02:51:26.193Z,96085.23
2019-05-30T02:53:52.246Z,96099.10
2019-05-30T02:56:18.349Z,96094.12
2019-05-30T02:58:44.498Z,96092.05
2019-05-30T03:01:11.943Z,96094.80
2019-05-30T03:03:38.674Z,96095.45
2019-05-30T03:06:06.931Z,96097.67
2019-05-30T03:08:32.768Z,96101.55
2019-05-30T03:10:58.878Z,96107.06
2019-05-30T03:13:25.075Z,96114.41
2019-05-30T03:15:51.546Z,96112.11
2019-05-30T03:18:17.650Z,96111.89
2019-05-30T03:20:43.958Z,96114.02
2019-05-30T03:23:12.132Z,96114.59
2019-05-30T03:25:38.268Z,96117.94
2019-05-30T03:28:05.221Z,96124.47
2019-05-30T03:30:32.393Z,96122.39
2019-05-30T03:33:07.563Z,96123.00
2019-05-30T03:35:29.844Z,96129.96
2019-05-30T03:37:54.507Z,96130.25
2019-05-30T03:40:22.814Z,96130.17
2019-05-30T03:42:48.821Z,96130.41
2019-05-30T03:45:16.605Z,96137.26
2019-05-30T03:47:52.356Z,96132.38
2019-05-30T03:50:21.677Z,96139.80
2019-05-30T03:52:47.804Z,96144.50
2019-05-30T03:55:17.561Z,96149.01
2019-05-30T03:57:47.268Z,96154.39
2019-05-30T04:00:18.574Z,96150.34
2019-05-30T04:02:59.277Z,96143.52
2019-05-30T04:05:43.874Z,96145.34
2019-05-30T04:08:12.346Z,96142.41
2019-05-30T04:10:40.972Z,96145.55
2019-05-30T04:13:19.694Z,96140.94
2019-05-30T04:15:45.751Z,96141.17
2019-05-30T04:18:13.827Z,96147.41
2019-05-30T04:20:39.633Z,96149.24
2019-05-30T04:23:05.662Z,96152.19
2019-05-30T04:25:31.769Z,96146.48
2019-05-30T04:27:57.813Z,96147.92
2019-05-30T04:30:23.985Z,96151.95
2019-05-30T04:32:50.779Z,96143.97
2019-05-30T04:35:18.789Z,96146.55
2019-05-30T04:37:44.826Z,96150.31
2019-05-30T04:40:13.263Z,96151.42
2019-05-30T04:42:39.496Z,96158.56
2019-05-30T04:45:06.101Z,96160.02
2019-05-30T04:47:32.210Z,96164.30
2019-05-30T04:49:58.121Z,96167.66
2019-05-30T04:52:25.063Z,96167.47
2019-05-30T04:54:51.289Z,96164.55
2019-05-30T04:57:19.106Z,96170.25
2019-05-30T04:59:45.134Z,96170.31
2019-05-30T05:02:11.538Z,96179.90
2019-05-30T05:04:39.066Z,96184.57
2019-05-30T05:07:05.080Z,96187.02
2019-05-30T05:09:31.114Z,96191.61
2019-05-30T05:11:57.118Z,96187.95
2019-05-30T05:14:23.130Z,96193.47
2019-05-30T05:16:49.051Z,96197.84
2019-05-30T05:19:15.166Z,96190.39
2019-05-30T05:21:41.061Z,96198.75
2019-05-30T05:24:07.066Z,96205.17
2019-05-30T05:26:33.070Z,96199.87
2019-05-30T05:28:58.975Z,96203.00
2019-05-30T05:31:24.978Z,96189.73
2019-05-30T05:33:56.798Z,96197.91
2019-05-30T05:36:18.928Z,96200.98
2019-05-30T05:38:44.910Z,96210.98
2019-05-30T05:41:11.018Z,96203.86
2019-05-30T05:43:36.931Z,96204.52
2019-05-30T05:46:03.044Z,96209.02
2019-05-30T05:48:29.092Z,96213.50
2019-05-30T05:50:54.999Z,96214.13
2019-05-30T05:53:21.004Z,96212.09
2019-05-30T05:55:46.911Z,96205.55
2019-05-30T05:58:12.943Z,96208.40
2019-05-30T06:00:38.932Z,96205.14
2019-05-30T06:03:04.942Z,96200.77
2019-05-30T06:05:30.958Z,96210.46
2019-05-30T06:07:57.071Z,96212.11
2019-05-30T06:10:24.315Z,96206.60
2019-05-30T06:12:50.241Z,96213.52
2019-05-30T06:15:16.842Z,96214.11
2019-05-30T06:17:43.013Z,96212.09
2019-05-30T06:20:09.426Z,96210.56
2019-05-30T06:22:35.366Z,96208.62
2019-05-30T06:25:04.302Z,96208.40
2019-05-30T06:27:30.202Z,96208.40
2019-05-30T06:29:56.220Z,96210.45
2019-05-30T06:32:22.913Z,96215.56
2019-05-30T06:34:49.065Z,96213.94
2019-05-30T06:37:15.184Z,96224.14
2019-05-30T06:39:41.306Z,96220.07
2019-05-30T06:42:07.316Z,96226.29
2019-05-30T06:44:33.617Z,96230.47
2019-05-30T06:46:59.619Z,96231.88
2019-05-30T06:49:26.806Z,96238.73
2019-05-30T06:51:52.963Z,96241.09
2019-05-30T06:54:21.455Z,96248.30
2019-05-30T06:56:47.931Z,96252.19
2019-05-30T06:59:14.037Z,96256.66
2019-05-30T07:01:40.085Z,96256.28
2019-05-30T07:04:06.433Z,96260.13
2019-05-30T07:06:33.748Z,96264.53
2019-05-30T07:09:00.014Z,96262.49
2019-05-30T07:11:26.792Z,96266.55
2019-05-30T07:13:53.094Z,96268.50
2019-05-30T07:16:19.203Z,96263.53
2019-05-30T07:18:45.235Z,96261.99
2019-05-30T07:21:11.250Z,96258.11
2019-05-30T07:23:39.566Z,96270.97
2019-05-30T07:26:05.406Z,96273.20
2019-05-30T07:28:32.035Z,96281.05
2019-05-30T07:30:58.238Z,96281.45
2019-05-30T07:33:24.352Z,96277.09
2019-05-30T07:35:50.375Z,96279.03
2019-05-30T07:38:16.478Z,96283.52
2019-05-30T07:40:42.377Z,96279.02
2019-05-30T07:43:08.489Z,96284.52
2019-05-30T07:45:35.195Z,96280.54
2019-05-30T07:48:01.433Z,96286.38
2019-05-30T07:50:28.365Z,96284.52
2019-05-30T07:52:54.579Z,96286.66
2019-05-30T07:55:20.686Z,96280.03
2019-05-30T07:57:46.822Z,96282.48
2019-05-30T08:00:14.224Z,96283.52
2019-05-30T08:02:40.337Z,96293.80
2019-05-30T08:05:22.815Z,96296.05
2019-05-30T08:07:35.142Z,96290.66
2019-05-30T08:10:02.724Z,96291.48
2019-05-30T08:12:30.004Z,96294.42
2019-05-30T08:14:56.148Z,96300.43
2019-05-30T08:17:22.480Z,96303.31
2019-05-30T08:19:48.383Z,96296.68
2019-05-30T08:22:14.399Z,96300.45
2019-05-30T08:24:40.519Z,96297.17
2019-05-30T08:27:06.716Z,96295.84
2019-05-30T08:29:32.716Z,96303.70
2019-05-30T08:31:58.821Z,96299.21
2019-05-30T08:34:24.829Z,96309.31
2019-05-30T08:36:50.744Z,96305.11
2019-05-30T08:39:16.767Z,96296.81
2019-05-30T08:41:42.772Z,96309.31
2019-05-30T08:44:08.678Z,96304.20
2019-05-30T08:46:35.835Z,96307.08
2019-05-30T08:49:02.072Z,96304.83
2019-05-30T08:51:28.071Z,96303.30
2019-05-30T08:53:53.987Z,96310.13
2019-05-30T08:56:20.127Z,96307.85
2019-05-30T08:58:46.035Z,96310.28
2019-05-30T09:01:12.089Z,96314.55
2019-05-30T09:03:38.554Z,96310.98
2019-05-30T09:06:05.017Z,96310.27
2019-05-30T09:08:31.124Z,96312.09
2019-05-30T09:10:57.139Z,96315.88
2019-05-30T09:13:23.264Z,96323.44
2019-05-30T09:15:49.400Z,96322.81
2019-05-30T09:18:15.511Z,96322.81
2019-05-30T09:20:42.007Z,96330.13
2019-05-30T09:23:09.431Z,96323.17
2019-05-30T09:25:35.535Z,96326.45
2019-05-30T09:28:01.648Z,96337.47
2019-05-30T09:30:27.749Z,96343.37
2019-05-30T09:32:53.702Z,96340.88
2019-05-30T09:35:20.108Z,96340.41
2019-05-30T09:37:47.619Z,96335.09
2019-05-30T09:40:15.235Z,96334.29
2019-05-30T09:42:44.133Z,96329.98
2019-05-30T09:45:10.223Z,96334.31
2019-05-30T09:47:36.247Z,96334.61
2019-05-30T09:50:06.233Z,96333.78
2019-05-30T09:52:32.258Z,96331.71
2019-05-30T09:54:58.259Z,96331.94
2019-05-30T09:57:24.169Z,96332.21
2019-05-30T09:59:50.514Z,96334.94
2019-05-30T10:02:16.620Z,96335.44
2019-05-30T10:04:44.046Z,96335.36
2019-05-30T10:07:10.566Z,96330.27
2019-05-30T10:09:36.698Z,96332.71
2019-05-30T10:12:02.934Z,96340.03
2019-05-30T10:14:29.044Z,96340.86
2019-05-30T10:16:57.748Z,96347.20
2019-05-30T10:19:23.126Z,96338.85
2019-05-30T10:21:51.720Z,96341.48
2019-05-30T10:24:17.886Z,96347.03
2019-05-30T10:26:45.591Z,96347.13
2019-05-30T10:29:12.067Z,96351.11
2019-05-30T10:31:38.189Z,96347.56
2019-05-30T10:34:04.708Z,96343.59
2019-05-30T10:36:43.346Z,96350.41
2019-05-30T10:38:58.868Z,96349.38
2019-05-30T10:41:26.393Z,96353.66
2019-05-30T10:43:53.169Z,96362.62
2019-05-30T10:46:19.303Z,96353.76
2019-05-30T10:48:47.275Z,96352.50
2019-05-30T10:51:13.324Z,96355.28
2019-05-30T10:53:39.336Z,96350.55
2019-05-30T10:56:05.457Z,96347.88
2019-05-30T10:58:31.367Z,96357.58
2019-05-30T11:00:57.980Z,96351.23
2019-05-30T11:03:25.647Z,96360.22
2019-05-30T11:05:55.358Z,96355.53
2019-05-30T11:08:25.000Z,96364.17
2019-05-30T11:10:51.111Z,96365.99
2019-05-30T11:13:19.247Z,96367.64
2019-05-30T11:15:45.457Z,96361.72
2019-05-30T11:18:11.770Z,96360.83
2019-05-30T11:20:37.993Z,96368.24
2019-05-30T11:23:04.376Z,96364.20
2019-05-30T11:25:31.684Z,96369.95
2019-05-30T11:27:58.837Z,96367.00
2019-05-30T11:30:25.219Z,96364.40
2019-05-30T11:32:51.213Z,96364.77
2019-05-30T11:35:17.346Z,96364.44
2019-05-30T11:37:43.494Z,96364.57
2019-05-30T11:40:10.002Z,96369.67
2019-05-30T11:42:36.044Z,96369.07
2019-05-30T11:45:05.440Z,96369.56
2019-05-30T11:47:31.447Z,96375.06
2019-05-30T11:49:57.755Z,96367.72
2019-05-30T11:52:23.998Z,96376.06
2019-05-30T11:54:50.051Z,96371.56
2019-05-30T11:57:16.052Z,96366.39
2019-05-30T11:59:42.065Z,96374.93
2019-05-30T12:02:08.302Z,96376.55
2019-05-30T12:04:34.200Z,96375.50
2019-05-30T12:07:00.917Z,96373.87
2019-05-30T12:09:26.919Z,96382.22
2019-05-30T12:11:55.154Z,96369.50
2019-05-30T12:14:21.643Z,96373.02
2019-05-30T12:16:47.722Z,96369.67
2019-05-30T12:19:13.871Z,96370.39
2019-05-30T12:21:39.989Z,96373.07
2019-05-30T12:24:06.100Z,96371.95
2019-05-30T12:26:33.957Z,96375.89
2019-05-30T12:29:00.209Z,96378.61
2019-05-30T12:31:26.318Z,96374.56
2019-05-30T12:33:52.392Z,96375.27
2019-05-30T12:36:18.455Z,96375.59
2019-05-30T12:38:44.467Z,96380.27
2019-05-30T12:41:10.475Z,96382.68
2019-05-30T12:43:36.596Z,96390.79
2019-05-30T12:46:03.310Z,96386.39
2019-05-30T12:48:29.432Z,96391.38
2019-05-30T12:50:55.552Z,96392.25
2019-05-30T12:53:21.662Z,96397.48
2019-05-30T12:56:24.807Z,96403.47
2019-05-30T12:58:50.842Z,96391.55
2019-05-30T13:01:16.851Z,96392.61
2019-05-30T13:03:42.980Z,96386.78
2019-05-30T13:06:09.196Z,96400.09
2019-05-30T13:08:35.202Z,96393.49
2019-05-30T13:11:01.827Z,96398.86
2019-05-30T13:13:28.204Z,96398.70
2019-05-30T13:15:54.606Z,96396.61
2019-05-30T13:18:20.856Z,96396.31
2019-05-30T13:20:46.971Z,96402.34
2019-05-30T13:23:13.125Z,96409.39
2019-05-30T13:25:39.239Z,96410.72
2019-05-30T13:28:08.107Z,96413.27
2019-05-30T13:30:33.346Z,96416.28
2019-05-30T13:33:00.702Z,96412.96
2019-05-30T13:35:26.967Z,96415.09
2019-05-30T13:37:52.872Z,96407.94
2019-05-30T13:40:24.997Z,96401.74
2019-05-30T13:42:47.394Z,96408.45
2019-05-30T13:45:13.700Z,96405.58
2019-05-30T13:47:39.809Z,96410.87
2019-05-30T13:50:12.727Z,96409.80
2019-05-30T13:52:36.563Z,96420.13
2019-05-30T13:55:05.405Z,96412.45
2019-05-30T13:57:31.407Z,96412.00
2019-05-30T13:59:57.346Z,96414.88
2019-05-30T14:02:23.286Z,96417.79
2019-05-30T14:04:49.414Z,96419.84
2019-05-30T14:07:15.452Z,96419.72
2019-05-30T14:09:41.385Z,96416.97
2019-05-30T14:12:08.613Z,96413.89
2019-05-30T14:14:34.860Z,96418.30
2019-05-30T14:17:00.948Z,96422.44
2019-05-30T14:19:26.995Z,96415.84
2019-05-30T14:21:52.896Z,96413.53
2019-05-30T14:24:18.964Z,96417.20
2019-05-30T14:26:44.862Z,96419.06
2019-05-30T14:29:11.952Z,96415.22
2019-05-30T14:31:38.261Z,96417.57
2019-05-30T14:34:04.394Z,96417.57
2019-05-30T14:36:30.560Z,96418.23
2019-05-30T14:38:58.743Z,96419.56
2019-05-30T14:41:24.276Z,96418.53
2019-05-30T14:43:50.409Z,96419.98
2019-05-30T14:46:16.746Z,96421.94
2019-05-30T14:48:43.070Z,96426.80
2019-05-30T14:51:09.173Z,96423.63
2019-05-30T14:53:35.192Z,96423.27
2019-05-30T14:56:01.087Z,96420.02
2019-05-30T14:58:27.227Z,96421.48
2019-05-30T15:00:53.245Z,96419.83
2019-05-30T15:03:19.280Z,96420.55
2019-05-30T15:05:45.384Z,96422.53
2019-05-30T15:08:12.357Z,96423.42
2019-05-30T15:10:38.527Z,96425.67
2019-05-30T15:13:05.462Z,96420.63
2019-05-30T15:15:31.583Z,96421.15
2019-05-30T15:17:57.619Z,96424.73
2019-05-30T15:20:24.634Z,96425.13
2019-05-30T15:22:50.649Z,96426.32
2019-05-30T15:25:18.054Z,96421.78
2019-05-30T15:27:44.367Z,96424.16
2019-05-30T15:30:12.683Z,96420.08
2019-05-30T15:32:39.033Z,96423.48
2019-05-30T15:35:06.636Z,96422.15
2019-05-30T15:37:32.921Z,96422.54
2019-05-30T15:39:59.066Z,96423.70
2019-05-30T15:42:25.064Z,96419.52
2019-05-30T15:44:50.971Z,96427.16
2019-05-30T15:47:18.364Z,96421.86
2019-05-30T15:49:44.438Z,96422.48
2019-05-30T15:52:11.644Z,96420.03
2019-05-30T15:54:38.094Z,96414.23
2019-05-30T15:57:04.245Z,96412.20
2019-05-30T15:59:30.253Z,96415.98
2019-05-30T16:01:56.397Z,96411.80
2019-05-30T16:04:22.411Z,96409.65
2019-05-30T16:06:48.544Z,96405.67
2019-05-30T16:09:14.669Z,96404.33
2019-05-30T16:11:40.590Z,96407.28
2019-05-30T16:14:06.664Z,96402.09
2019-05-30T16:16:39.326Z,96405.47
2019-05-30T16:19:14.984Z,96406.91
2019-05-30T16:21:28.526Z,96401.70
2019-05-30T16:23:54.570Z,96408.66
2019-05-30T16:26:21.958Z,96402.73
2019-05-30T16:28:48.017Z,96400.58
2019-05-30T16:31:14.025Z,96397.22
2019-05-30T16:33:39.930Z,96400.98
2019-05-30T16:36:05.960Z,96402.41
2019-05-30T16:38:31.878Z,96398.84
2019-05-30T16:40:57.879Z,96400.16
2019-05-30T16:43:23.886Z,96402.02
2019-05-30T16:45:49.891Z,96405.58
2019-05-30T16:48:16.328Z,96400.07
2019-05-30T16:50:42.356Z,96404.83
2019-05-30T16:53:08.489Z,96405.09
2019-05-30T16:55:34.600Z,96405.09
2019-05-30T16:58:00.502Z,96402.42
2019-05-30T17:00:26.910Z,96402.90
2019-05-30T17:02:53.012Z,96399.64
2019-05-30T17:05:19.219Z,96404.09
2019-05-30T17:07:48.404Z,96403.23
2019-05-30T17:10:23.503Z,96407.27
2019-05-30T17:12:41.823Z,96410.02
2019-05-30T17:15:08.522Z,96414.06
2019-05-30T17:17:34.520Z,96411.14
2019-05-30T17:20:00.641Z,96403.20
2019-05-30T17:22:29.375Z,96403.46
2019-05-30T17:24:54.738Z,96410.87
2019-05-30T17:27:20.732Z,96406.24
2019-05-30T17:29:46.765Z,96408.27
2019-05-30T17:32:12.761Z,96408.06
2019-05-30T17:34:38.868Z,96401.48
2019-05-30T17:37:04.975Z,96403.23
2019-05-30T17:39:31.099Z,96406.34
2019-05-30T17:41:57.106Z,96407.44
2019-05-30T17:44:23.020Z,96409.69
2019-05-30T17:46:48.925Z,96403.93
2019-05-30T17:49:15.064Z,96410.81
2019-05-30T17:51:41.108Z,96409.85
2019-05-30T17:54:07.210Z,96408.83
2019-05-30T17:56:33.239Z,96403.23
2019-05-30T17:58:59.348Z,96410.19
2019-05-30T18:01:26.315Z,96416.87
2019-05-30T18:03:52.380Z,96419.77
2019-05-30T18:06:18.424Z,96424.27
2019-05-30T18:08:44.539Z,96415.92
2019-05-30T18:11:10.548Z,96426.16
2019-05-30T18:13:36.509Z,96424.92
2019-05-30T18:16:02.598Z,96437.28
2019-05-30T18:18:29.345Z,96435.45
2019-05-30T18:20:55.407Z,96434.03
2019-05-30T18:23:21.567Z,96434.25
2019-05-30T18:25:47.507Z,96437.33
2019-05-30T18:28:13.534Z,96444.06
2019-05-30T18:30:42.445Z,96450.60
2019-05-30T18:33:08.760Z,96451.60
2019-05-30T18:35:34.770Z,96459.98
2019-05-30T18:38:01.965Z,96459.65
2019-05-30T18:40:31.023Z,96465.75
2019-05-30T18:42:57.140Z,96469.16
2019-05-30T18:45:35.881Z,96462.86
2019-05-30T18:48:01.988Z,96463.92
2019-05-30T18:50:29.292Z,96469.09
2019-05-30T18:52:55.353Z,96464.19
2019-05-30T18:55:21.459Z,96473.13
2019-05-30T18:57:47.472Z,96472.37
2019-05-30T19:00:16.129Z,96478.30
2019-05-30T19:02:41.439Z,96477.97
2019-05-30T19:05:07.552Z,96491.35
2019-05-30T19:07:33.581Z,96478.06
2019-05-30T19:09:59.730Z,96482.73
2019-05-30T19:12:25.954Z,96484.59
2019-05-30T19:14:52.063Z,96480.84
2019-05-30T19:17:18.067Z,96480.35
2019-05-30T19:19:44.202Z,96487.47
2019-05-30T19:22:10.207Z,96487.61
2019-05-30T19:24:36.249Z,96490.98
2019-05-30T19:27:02.376Z,96489.89
2019-05-30T19:29:28.954Z,96489.82
2019-05-30T19:31:54.909Z,96493.73
2019-05-30T19:34:20.937Z,96497.50
2019-05-30T19:36:46.946Z,96495.15
2019-05-30T19:39:13.079Z,96489.14
2019-05-30T19:41:53.811Z,96493.22
2019-05-30T19:44:07.113Z,96493.55
2019-05-30T19:46:34.214Z,96497.73
2019-05-30T19:49:00.262Z,96492.63
2019-05-30T19:51:26.277Z,96497.40
2019-05-30T19:53:52.282Z,96504.16
2019-05-30T19:56:18.413Z,96499.16
2019-05-30T19:58:44.528Z,96497.53
2019-05-30T20:01:10.556Z,96498.86
2019-05-30T20:03:44.740Z,96501.80
2019-05-30T20:06:04.558Z,96496.50
2019-05-30T20:08:45.711Z,96503.13
2019-05-30T20:10:58.658Z,96499.16
2019-05-30T20:13:24.763Z,96492.02
2019-05-30T20:15:50.802Z,96495.67
2019-05-30T20:18:16.715Z,96496.50
2019-05-30T20:20:54.081Z,96501.11
2019-05-30T20:23:10.750Z,96497.75
2019-05-30T20:25:40.748Z,96494.90
2019-05-30T20:28:04.787Z,96497.05
2019-05-30T20:30:30.887Z,96499.38
2019-05-30T20:32:56.797Z,96500.08
2019-05-30T20:35:22.898Z,96503.95
2019-05-30T20:37:48.905Z,96501.60
2019-05-30T20:40:15.215Z,96507.03
2019-05-30T20:42:41.349Z,96492.52
2019-05-30T20:45:10.069Z,96497.75
2019-05-30T20:47:38.451Z,96505.02
2019-05-30T20:50:06.351Z,96502.66
2019-05-30T20:52:32.467Z,96501.95
2019-05-30T20:54:58.503Z,96499.11
2019-05-30T20:57:24.509Z,96508.09
2019-05-30T20:59:50.550Z,96511.86
2019-05-30T21:02:16.658Z,96502.58
2019-05-30T21:04:43.010Z,96507.56
2019-05-30T21:07:09.210Z,96505.94
2019-05-30T21:09:37.770Z,96501.95
2019-05-30T21:12:03.978Z,96500.63
2019-05-30T21:14:32.127Z,96504.81
2019-05-30T21:17:00.331Z,96506.14
2019-05-30T21:19:26.459Z,96504.16
2019-05-30T21:21:52.460Z,96501.70
2019-05-30T21:24:18.502Z,96496.00
2019-05-30T21:26:44.834Z,96505.02
2019-05-30T21:29:10.927Z,96502.16
2019-05-30T21:31:37.292Z,96510.01
2019-05-30T21:34:03.746Z,96506.43
2019-05-30T21:36:29.832Z,96509.78
2019-05-30T21:38:55.841Z,96507.66
2019-05-30T21:41:21.838Z,96510.41
2019-05-30T21:43:48.931Z,96507.69
2019-05-30T21:46:15.267Z,96507.78
2019-05-30T21:48:41.335Z,96500.88
2019-05-30T21:51:07.445Z,96495.37
2019-05-30T21:53:33.550Z,96503.73
2019-05-30T21:55:59.474Z,96502.58
2019-05-30T21:58:25.590Z,96498.45
2019-05-30T22:01:03.862Z,96495.67
2019-05-30T22:03:29.776Z,96496.23
2019-05-30T22:05:55.794Z,96492.97
2019-05-30T22:08:21.815Z,96499.08
2019-05-30T22:10:47.770Z,96495.10
2019-05-30T22:13:13.855Z,96492.05
2019-05-30T22:15:39.877Z,96497.38
2019-05-30T22:18:05.881Z,96501.16
2019-05-30T22:20:31.950Z,96500.92
2019-05-30T22:22:57.955Z,96498.45
2019-05-30T22:25:24.090Z,96498.75
2019-05-30T22:27:50.592Z,96501.03
2019-05-30T22:30:17.198Z,96504.91
2019-05-30T22:32:44.542Z,96502.58
2019-05-30T22:35:10.743Z,96499.30
2019-05-30T22:37:36.790Z,96495.80
2019-05-30T22:40:06.040Z,96496.83
2019-05-30T22:42:33.961Z,96494.34
2019-05-30T22:44:59.997Z,96499.33
2019-05-30T22:47:25.903Z,96488.95
2019-05-30T22:49:52.983Z,96503.53
2019-05-30T22:52:19.205Z,96497.59
2019-05-30T22:54:45.308Z,96493.84
2019-05-30T22:57:11.354Z,96498.67
2019-05-30T22:59:37.794Z,96496.05
2019-05-30T23:02:03.950Z,96494.02
2019-05-30T23:04:29.954Z,96489.97
2019-05-30T23:06:56.473Z,96488.54
2019-05-30T23:09:22.529Z,96479.37
2019-05-30T23:11:49.456Z,96487.76
2019-05-30T23:14:15.840Z,96487.76
2019-05-30T23:16:41.873Z,96484.28
2019-05-30T23:19:07.975Z,96482.95
2019-05-30T23:21:34.329Z,96482.33
2019-05-30T23:24:00.533Z,96487.43
2019-05-30T23:26:26.471Z,96481.63
2019-05-30T23:28:53.724Z,96476.95
2019-05-30T23:31:19.959Z,96481.02
2019-05-30T23:33:46.061Z,96481.97
2019-05-30T23:36:12.101Z,96492.17
2019-05-30T23:38:38.263Z,96484.92
2019-05-30T23:41:04.378Z,96483.89
2019-05-30T23:43:30.394Z,96485.05
2019-05-30T23:45:57.465Z,96481.56
2019-05-30T23:48:23.702Z,96482.19
2019-05-30T23:50:49.815Z,96486.96
2019-05-30T23:53:15.849Z,96484.64
2019-05-30T23:55:41.956Z,96480.64
2019-05-30T23:58:07.962Z,96475.22
